Homestead ARB Airport
KHST : now visible

Airfield :











YOU CAN JOIN US ON...

 
LOGIN :

Register | Disclaimer

   EN    FR    IT 

 









Legend :    VFR   Marginal VFR   IFR   Intensive IFR   Very Intensive IFR
Visi :
Ceiling :
>= 8 km
>= 3000ft
5 to 8 km
1000 to 3000 ft
1500m to 5 km
500 to 1000 ft
800 to 1500m
200 to 500 ft
< 800m
< 200 ft
Symbols :   Thunderstorms  Fog  Heavy snow  Heavy precipitations  Wind > 20 kt






- Airport Elevation : 5 ft


KHST - Homestead ARB

CURRENT METAR :
  • 181455Z AUTO 09011KT 10SM -DZ SCT028 27/18 A3010 RMK AO2 DZB33 SLP196 P0000 60000 T02710181 53010

EXPIRED METARs :
  • 181438Z AUTO 09008KT 10SM -DZ BKN028 27/19 A3010 RMK AO2 DZB33 SLP196
  • 181355Z AUTO 08009KT 10SM SCT027 26/18 A3008 RMK AO2 SLP189 T02630182
  • 181255Z AUTO 11006KT 10SM FEW029 25/18 A3007 RMK AO2 SLP186 T02500179
  • 181155Z AUTO 10004KT 10SM CLR 23/17 A3007 RMK AO2 DZE02 SLP186 P0000 60000 T02340169 10234 20210 52013
  • 181102Z AUTO 10003KT 10SM FEW032 22/17 A3005 RMK AO2 DZE02 SLP179
  • 181025Z AUTO 08004KT 10SM -DZ FEW030 21/16 A3004 RMK AO2 DZB25 SLP176

TAF TAF KHST
Valid from the 18 at 11:00 until the 19 at 17:00 UTC


181100Z 1811/1917 08004KT 9999 FEW032 FEW220 QNH3005INS
BECMG 1813/1814 10012KT 9999 SCT035 SCT220 QNH3001INS
BECMG 1822/1823 08004KT 9999 FEW024 SCT220 QNH3000INS
BECMG 1913/1914 10012KT 9999 SCT032 BKN220 QNH3008INS TX28/1818Z TN22/1811Z
KZMA FIR / North America



MET'MAP, your aeronautical weather chart ! - Copyright ORBIFLY December 2007 - Disclaimer

ORBIFLY MET'MAP TEAM :

Programming & Development : Alexandra Zaïnal
Original concept : Baudouin d'Aumeries
Technical & hardware support : Manuel Goepfert
Assistance : Marc-Olivier Méhu




SOURCES & CREDITS :

   NOAA       Earth
Advisory